DAL179 WARR-YPPH
Flight info
| Callsign | DAL179 |
|---|---|
| Flight time | 3h 47m |
| Altitude | 33000 |
| Route | MOVMO M766 BLI G578 LIPRA/N0473F350 G578 EGATU L514 MUNNI/N0469F360 L514 AVPAL Q38 JULIM JULI8A |
| Aircraft | B738/M-SDE2E3FGHIRWXY/LB1 |
Departure
| Time | 2026-04-29 14:52 |
|---|---|
| Airport | Juanda International Airport (WARR) |
Arrival
| Time | 2026-04-29 18:40 |
|---|---|
| Airport | Perth International Airport (YPPH) |
| Time | Latitude | Longitude | Altitude | Speed | Heading |
|---|---|---|---|---|---|
| 2026-04-29 14:40 | -7.37611 | 112.79593 | 8 ft | 0 kts | 9° |
| 2026-04-29 14:46 | -7.37619 | 112.79591 | 10 ft | 4 kts | 10° |
| 2026-04-29 14:46 | -7.37636 | 112.79588 | 10 ft | 4 kts | 15° |
| 2026-04-29 14:46 | -7.37662 | 112.79579 | 8 ft | 4 kts | 25° |
| 2026-04-29 14:46 | -7.37684 | 112.79565 | 9 ft | 4 kts | 52° |
| 2026-04-29 14:47 | -7.37691 | 112.79547 | 8 ft | 1 kts | 99° |
| 2026-04-29 14:48 | -7.37692 | 112.79550 | 8 ft | 1 kts | 99° |
| 2026-04-29 14:49 | -7.37695 | 112.79572 | 9 ft | 5 kts | 99° |
| 2026-04-29 14:49 | -7.37702 | 112.79615 | 8 ft | 7 kts | 99° |
| 2026-04-29 14:49 | -7.37712 | 112.79673 | 8 ft | 9 kts | 99° |
| 2026-04-29 14:49 | -7.37723 | 112.79744 | 8 ft | 11 kts | 99° |
| 2026-04-29 14:50 | -7.37759 | 112.79809 | 8 ft | 12 kts | 170° |
| 2026-04-29 14:50 | -7.37847 | 112.79800 | 8 ft | 14 kts | 189° |
| 2026-04-29 14:50 | -7.37945 | 112.79787 | 9 ft | 15 kts | 173° |
| 2026-04-29 14:50 | -7.37998 | 112.79870 | 8 ft | 16 kts | 98° |
| 2026-04-29 14:51 | -7.38014 | 112.79984 | 8 ft | 17 kts | 101° |
| 2026-04-29 14:51 | -7.38103 | 112.80038 | 7 ft | 17 kts | 188° |
| 2026-04-29 14:51 | -7.38189 | 112.79988 | 6 ft | 13 kts | 271° |
| 2026-04-29 14:51 | -7.38170 | 112.79844 | 6 ft | 44 kts | 279° |
| 2026-04-29 14:52 | -7.38083 | 112.79305 | 9 ft | 111 kts | 279° |
| 2026-04-29 14:52 | -7.37928 | 112.78339 | 9 ft | 167 kts | 279° |
| 2026-04-29 14:52 | -7.37733 | 112.77117 | 509 ft | 176 kts | 278° |
| 2026-04-29 14:52 | -7.37528 | 112.75870 | 1105 ft | 188 kts | 279° |
| 2026-04-29 14:53 | -7.37309 | 112.74560 | 1821 ft | 192 kts | 280° |
| 2026-04-29 14:53 | -7.37069 | 112.73138 | 2139 ft | 220 kts | 280° |
| 2026-04-29 14:53 | -7.36798 | 112.71545 | 2352 ft | 243 kts | 280° |
| 2026-04-29 14:53 | -7.36503 | 112.69813 | 2733 ft | 256 kts | 280° |
| 2026-04-29 14:54 | -7.36186 | 112.67961 | 3028 ft | 278 kts | 280° |
| 2026-04-29 14:54 | -7.35853 | 112.66018 | 3732 ft | 283 kts | 281° |
| 2026-04-29 14:54 | -7.35106 | 112.64214 | 4523 ft | 281 kts | 313° |
| 2026-04-29 14:54 | -7.33526 | 112.63133 | 5292 ft | 276 kts | 346° |
| 2026-04-29 14:55 | -7.31644 | 112.62925 | 6039 ft | 273 kts | 9° |
| 2026-04-29 14:55 | -7.29840 | 112.63471 | 6735 ft | 273 kts | 31° |
| 2026-04-29 14:55 | -7.28385 | 112.64683 | 7397 ft | 274 kts | 53° |
| 2026-04-29 14:55 | -7.27474 | 112.66374 | 8060 ft | 277 kts | 68° |
| 2026-04-29 14:56 | -7.26778 | 112.68198 | 8728 ft | 281 kts | 70° |
| 2026-04-29 14:56 | -7.26096 | 112.70060 | 9405 ft | 285 kts | 70° |
| 2026-04-29 14:56 | -7.25402 | 112.71948 | 10049 ft | 289 kts | 70° |
| 2026-04-29 14:56 | -7.24685 | 112.73883 | 10404 ft | 305 kts | 69° |
| 2026-04-29 14:57 | -7.23908 | 112.75956 | 10544 ft | 326 kts | 69° |
| 2026-04-29 14:57 | -7.23080 | 112.78152 | 10773 ft | 342 kts | 69° |
| 2026-04-29 14:57 | -7.22222 | 112.80415 | 11248 ft | 349 kts | 69° |
| 2026-04-29 14:57 | -7.21349 | 112.82713 | 11810 ft | 353 kts | 69° |
| 2026-04-29 14:58 | -7.20772 | 112.85111 | 12404 ft | 355 kts | 88° |
| 2026-04-29 14:58 | -7.21088 | 112.87579 | 12992 ft | 359 kts | 107° |
| 2026-04-29 14:58 | -7.22144 | 112.89875 | 13513 ft | 365 kts | 118° |
| 2026-04-29 14:58 | -7.23393 | 112.92117 | 14008 ft | 369 kts | 119° |
| 2026-04-29 14:59 | -7.24673 | 112.94361 | 14524 ft | 371 kts | 119° |
| 2026-04-29 14:59 | -7.25954 | 112.96614 | 15100 ft | 371 kts | 118° |
| 2026-04-29 14:59 | -7.27228 | 112.98878 | 15634 ft | 374 kts | 118° |
| 2026-04-29 14:59 | -7.28508 | 113.01174 | 16119 ft | 377 kts | 118° |
| 2026-04-29 15:00 | -7.29784 | 113.03477 | 16686 ft | 378 kts | 118° |
| 2026-04-29 15:00 | -7.31069 | 113.05804 | 17133 ft | 382 kts | 118° |
| 2026-04-29 15:00 | -7.32363 | 113.08151 | 17614 ft | 385 kts | 118° |
| 2026-04-29 15:00 | -7.33666 | 113.10514 | 18102 ft | 387 kts | 118° |
| 2026-04-29 15:01 | -7.34977 | 113.12892 | 18582 ft | 388 kts | 118° |
| 2026-04-29 15:01 | -7.36290 | 113.15271 | 18969 ft | 391 kts | 118° |
| 2026-04-29 15:01 | -7.37694 | 113.17624 | 19365 ft | 394 kts | 126° |
| 2026-04-29 15:01 | -7.39465 | 113.19757 | 19722 ft | 399 kts | 131° |
| 2026-04-29 15:02 | -7.41349 | 113.21821 | 20106 ft | 402 kts | 132° |
| 2026-04-29 15:02 | -7.43263 | 113.23876 | 20528 ft | 403 kts | 132° |
| 2026-04-29 15:02 | -7.45178 | 113.25938 | 20994 ft | 403 kts | 132° |
| 2026-04-29 15:02 | -7.47064 | 113.27992 | 21385 ft | 405 kts | 131° |
| 2026-04-29 15:03 | -7.49000 | 113.30123 | 21758 ft | 408 kts | 131° |
| 2026-04-29 15:03 | -7.50890 | 113.32221 | 22075 ft | 412 kts | 131° |
| 2026-04-29 15:03 | -7.52842 | 113.34397 | 22442 ft | 414 kts | 131° |
| 2026-04-29 15:03 | -7.54747 | 113.36525 | 22873 ft | 415 kts | 131° |
| 2026-04-29 15:04 | -7.56680 | 113.38688 | 23270 ft | 416 kts | 131° |
| 2026-04-29 15:04 | -7.58620 | 113.40860 | 23577 ft | 419 kts | 131° |
| 2026-04-29 15:04 | -7.60577 | 113.43051 | 23823 ft | 422 kts | 131° |
| 2026-04-29 15:04 | -7.62545 | 113.45254 | 24116 ft | 423 kts | 131° |
| 2026-04-29 15:05 | -7.64515 | 113.47460 | 24427 ft | 425 kts | 131° |
| 2026-04-29 15:05 | -7.66503 | 113.49686 | 24666 ft | 428 kts | 131° |
| 2026-04-29 15:05 | -7.68506 | 113.51929 | 24876 ft | 432 kts | 131° |
| 2026-04-29 15:05 | -7.70521 | 113.54185 | 25134 ft | 434 kts | 131° |
| 2026-04-29 15:06 | -7.72548 | 113.56455 | 25428 ft | 436 kts | 131° |
| 2026-04-29 15:06 | -7.74577 | 113.58728 | 25709 ft | 437 kts | 131° |
| 2026-04-29 15:06 | -7.76617 | 113.61014 | 25977 ft | 439 kts | 131° |
| 2026-04-29 15:06 | -7.78663 | 113.63306 | 26242 ft | 441 kts | 131° |
| 2026-04-29 15:07 | -7.80720 | 113.65612 | 26499 ft | 443 kts | 131° |
| 2026-04-29 15:07 | -7.82785 | 113.67926 | 26755 ft | 445 kts | 131° |
| 2026-04-29 15:07 | -7.84854 | 113.70246 | 27038 ft | 446 kts | 131° |
| 2026-04-29 15:07 | -7.86929 | 113.72573 | 27305 ft | 447 kts | 132° |
| 2026-04-29 15:08 | -7.89020 | 113.74918 | 27513 ft | 450 kts | 132° |
| 2026-04-29 15:08 | -7.91118 | 113.77271 | 27723 ft | 452 kts | 131° |
| 2026-04-29 15:08 | -7.93224 | 113.79634 | 27985 ft | 454 kts | 131° |
| 2026-04-29 15:08 | -7.95339 | 113.82007 | 28236 ft | 455 kts | 132° |
| 2026-04-29 15:09 | -7.97453 | 113.84381 | 28493 ft | 456 kts | 132° |
| 2026-04-29 15:09 | -7.99577 | 113.86765 | 28710 ft | 457 kts | 132° |
| 2026-04-29 15:09 | -8.01707 | 113.89161 | 28885 ft | 460 kts | 131° |
| 2026-04-29 15:09 | -8.03615 | 113.91762 | 29043 ft | 463 kts | 122° |
| 2026-04-29 15:10 | -8.05246 | 113.94518 | 29247 ft | 465 kts | 120° |
| 2026-04-29 15:10 | -8.06829 | 113.97364 | 29481 ft | 466 kts | 119° |
| 2026-04-29 15:10 | -8.08399 | 114.00228 | 29699 ft | 467 kts | 119° |
| 2026-04-29 15:10 | -8.09980 | 114.03086 | 29995 ft | 466 kts | 120° |
| 2026-04-29 15:11 | -8.11576 | 114.05926 | 30285 ft | 465 kts | 120° |
| 2026-04-29 15:11 | -8.13182 | 114.08749 | 30576 ft | 463 kts | 120° |
| 2026-04-29 15:11 | -8.14793 | 114.11553 | 30886 ft | 461 kts | 121° |
| 2026-04-29 15:11 | -8.16405 | 114.14345 | 31130 ft | 461 kts | 120° |
| 2026-04-29 15:12 | -8.18023 | 114.17143 | 31297 ft | 462 kts | 121° |
| 2026-04-29 15:12 | -8.19119 | 114.19036 | 31474 ft | 462 kts | 121° |
| 2026-04-29 15:12 | -8.21259 | 114.22735 | 31888 ft | 459 kts | 121° |
| 2026-04-29 15:12 | -8.22865 | 114.25515 | 32204 ft | 457 kts | 121° |
| 2026-04-29 15:13 | -8.24465 | 114.28285 | 32442 ft | 457 kts | 120° |
| 2026-04-29 15:13 | -8.26071 | 114.31066 | 32634 ft | 459 kts | 120° |
| 2026-04-29 15:13 | -8.27676 | 114.33847 | 32874 ft | 458 kts | 120° |
| 2026-04-29 15:14 | -8.30895 | 114.39428 | 32929 ft | 461 kts | 120° |
| 2026-04-29 15:14 | -8.34116 | 114.45014 | 32928 ft | 459 kts | 121° |
| 2026-04-29 15:15 | -8.37318 | 114.50569 | 32931 ft | 456 kts | 121° |
| 2026-04-29 15:15 | -8.40503 | 114.56097 | 32928 ft | 455 kts | 121° |
| 2026-04-29 15:16 | -8.43681 | 114.61616 | 32927 ft | 454 kts | 120° |
| 2026-04-29 15:16 | -8.46857 | 114.67132 | 32936 ft | 454 kts | 120° |
| 2026-04-29 15:17 | -8.50035 | 114.72655 | 32934 ft | 455 kts | 120° |
| 2026-04-29 15:17 | -8.53216 | 114.78186 | 32939 ft | 456 kts | 120° |
| 2026-04-29 15:18 | -8.56406 | 114.83734 | 32930 ft | 457 kts | 120° |
| 2026-04-29 15:18 | -8.59604 | 114.89298 | 32923 ft | 458 kts | 120° |
| 2026-04-29 15:19 | -8.62787 | 114.94840 | 32911 ft | 460 kts | 120° |
| 2026-04-29 15:19 | -8.66022 | 115.00474 | 32899 ft | 461 kts | 120° |
| 2026-04-29 15:20 | -8.69223 | 115.06052 | 32888 ft | 462 kts | 120° |
| 2026-04-29 15:20 | -8.72445 | 115.11666 | 32886 ft | 462 kts | 121° |
| 2026-04-29 15:20 | -8.74321 | 115.14288 | 32869 ft | 460 kts | 135° |
| 2026-04-29 15:21 | -8.76794 | 115.16313 | 32896 ft | 458 kts | 149° |
| 2026-04-29 15:21 | -8.79653 | 115.17710 | 32879 ft | 457 kts | 163° |
| 2026-04-29 15:21 | -8.82702 | 115.18591 | 32900 ft | 455 kts | 165° |
| 2026-04-29 15:22 | -8.88832 | 115.20202 | 32891 ft | 455 kts | 166° |
| 2026-04-29 15:22 | -8.94958 | 115.21828 | 32890 ft | 455 kts | 165° |
| 2026-04-29 15:23 | -9.01066 | 115.23499 | 32910 ft | 454 kts | 165° |
| 2026-04-29 15:23 | -9.07167 | 115.25192 | 32913 ft | 455 kts | 165° |
| 2026-04-29 15:24 | -9.13268 | 115.26890 | 32924 ft | 455 kts | 165° |
| 2026-04-29 15:24 | -9.19377 | 115.28589 | 32920 ft | 456 kts | 165° |
| 2026-04-29 15:25 | -9.25494 | 115.30291 | 32920 ft | 456 kts | 165° |
| 2026-04-29 15:25 | -9.31626 | 115.31996 | 32924 ft | 457 kts | 165° |
| 2026-04-29 15:26 | -9.37770 | 115.33706 | 32931 ft | 459 kts | 165° |
| 2026-04-29 15:26 | -9.43937 | 115.35422 | 32926 ft | 460 kts | 165° |
| 2026-04-29 15:27 | -9.50119 | 115.37144 | 32924 ft | 461 kts | 165° |
| 2026-04-29 15:27 | -9.56311 | 115.38868 | 32923 ft | 462 kts | 165° |
| 2026-04-29 15:28 | -9.62505 | 115.40595 | 32917 ft | 462 kts | 166° |
| 2026-04-29 15:28 | -9.68707 | 115.42323 | 32926 ft | 462 kts | 166° |
| 2026-04-29 15:29 | -9.74912 | 115.44053 | 32926 ft | 462 kts | 166° |
| 2026-04-29 15:30 | -9.87317 | 115.47515 | 32927 ft | 462 kts | 166° |
| 2026-04-29 15:30 | -9.93520 | 115.49247 | 32926 ft | 462 kts | 166° |
| 2026-04-29 15:31 | -9.99720 | 115.50979 | 32928 ft | 462 kts | 166° |
| 2026-04-29 15:31 | -10.05907 | 115.52707 | 32931 ft | 461 kts | 166° |
| 2026-04-29 15:32 | -10.12093 | 115.54436 | 32927 ft | 461 kts | 166° |
| 2026-04-29 15:32 | -10.17234 | 115.55874 | 32925 ft | 461 kts | 166° |
| 2026-04-29 15:33 | -10.24413 | 115.57882 | 32933 ft | 460 kts | 166° |
| 2026-04-29 15:33 | -10.30580 | 115.59608 | 32925 ft | 459 kts | 166° |
| 2026-04-29 15:34 | -10.36736 | 115.61332 | 32925 ft | 458 kts | 166° |
| 2026-04-29 15:34 | -10.41876 | 115.62771 | 32924 ft | 457 kts | 166° |
| 2026-04-29 15:35 | -10.48006 | 115.64489 | 32925 ft | 457 kts | 166° |
| 2026-04-29 15:35 | -10.54131 | 115.66206 | 32922 ft | 456 kts | 166° |
| 2026-04-29 15:36 | -10.60254 | 115.67923 | 32918 ft | 456 kts | 166° |
| 2026-04-29 15:36 | -10.66381 | 115.69641 | 32933 ft | 457 kts | 166° |
| 2026-04-29 15:37 | -10.72518 | 115.71363 | 32933 ft | 458 kts | 166° |
| 2026-04-29 15:37 | -10.78667 | 115.73090 | 32932 ft | 459 kts | 166° |
| 2026-04-29 15:38 | -10.84830 | 115.74821 | 32927 ft | 460 kts | 166° |
| 2026-04-29 15:38 | -10.90964 | 115.76545 | 32926 ft | 461 kts | 166° |
| 2026-04-29 15:39 | -10.97149 | 115.78284 | 32930 ft | 461 kts | 167° |
| 2026-04-29 15:39 | -11.03335 | 115.80024 | 32935 ft | 461 kts | 166° |
| 2026-04-29 15:40 | -11.09526 | 115.81767 | 32933 ft | 461 kts | 167° |
| 2026-04-29 15:40 | -11.15715 | 115.83509 | 32933 ft | 461 kts | 166° |
| 2026-04-29 15:41 | -11.21880 | 115.85313 | 32935 ft | 461 kts | 166° |
| 2026-04-29 15:41 | -11.28019 | 115.87208 | 32935 ft | 461 kts | 165° |
| 2026-04-29 15:42 | -11.34177 | 115.89111 | 33005 ft | 466 kts | 165° |
| 2026-04-29 15:42 | -11.37289 | 115.90067 | 33166 ft | 468 kts | 165° |
| 2026-04-29 15:42 | -11.40401 | 115.91021 | 33465 ft | 466 kts | 165° |
| 2026-04-29 15:42 | -11.43497 | 115.91969 | 33814 ft | 463 kts | 165° |
| 2026-04-29 15:43 | -11.46575 | 115.92912 | 34087 ft | 462 kts | 165° |
| 2026-04-29 15:43 | -11.49655 | 115.93855 | 34256 ft | 463 kts | 165° |
| 2026-04-29 15:43 | -11.52746 | 115.94800 | 34392 ft | 464 kts | 165° |
| 2026-04-29 15:43 | -11.55839 | 115.95747 | 34605 ft | 464 kts | 165° |
| 2026-04-29 15:44 | -11.58941 | 115.96697 | 34687 ft | 467 kts | 165° |
| 2026-04-29 15:44 | -11.62052 | 115.97650 | 34861 ft | 466 kts | 165° |
| 2026-04-29 15:44 | -11.65158 | 115.98603 | 34927 ft | 466 kts | 165° |
| 2026-04-29 15:45 | -11.71388 | 116.00513 | 34936 ft | 468 kts | 165° |
| 2026-04-29 15:45 | -11.77615 | 116.02424 | 34940 ft | 467 kts | 165° |
| 2026-04-29 15:46 | -11.83841 | 116.04335 | 34941 ft | 467 kts | 165° |
| 2026-04-29 15:46 | -11.90062 | 116.06246 | 34942 ft | 467 kts | 165° |
| 2026-04-29 15:47 | -11.96274 | 116.08154 | 34936 ft | 466 kts | 165° |
| 2026-04-29 15:47 | -12.02477 | 116.10027 | 34930 ft | 463 kts | 171° |
| 2026-04-29 15:48 | -12.08839 | 116.10597 | 34942 ft | 458 kts | 181° |
| 2026-04-29 15:48 | -12.15205 | 116.10742 | 34941 ft | 457 kts | 180° |
| 2026-04-29 15:49 | -12.21520 | 116.11056 | 34951 ft | 457 kts | 179° |
| 2026-04-29 15:49 | -12.27907 | 116.11523 | 34944 ft | 457 kts | 178° |
| 2026-04-29 15:50 | -12.34196 | 116.12035 | 34949 ft | 456 kts | 178° |
| 2026-04-29 15:50 | -12.40525 | 116.12554 | 34947 ft | 456 kts | 178° |
| 2026-04-29 15:51 | -12.46847 | 116.13068 | 34952 ft | 456 kts | 178° |
| 2026-04-29 15:51 | -12.53167 | 116.13578 | 34951 ft | 456 kts | 178° |
| 2026-04-29 15:52 | -12.59491 | 116.14088 | 34953 ft | 456 kts | 178° |
| 2026-04-29 15:52 | -12.65824 | 116.14598 | 34950 ft | 457 kts | 178° |
| 2026-04-29 15:53 | -12.72165 | 116.15110 | 34954 ft | 457 kts | 178° |
| 2026-04-29 15:53 | -12.78514 | 116.15623 | 34955 ft | 458 kts | 178° |
| 2026-04-29 15:54 | -12.84871 | 116.16137 | 34957 ft | 459 kts | 178° |
| 2026-04-29 15:54 | -12.91238 | 116.16651 | 34954 ft | 459 kts | 178° |
| 2026-04-29 15:55 | -12.97611 | 116.17167 | 34950 ft | 460 kts | 178° |
| 2026-04-29 15:55 | -13.03992 | 116.17684 | 34955 ft | 460 kts | 178° |
| 2026-04-29 15:56 | -13.10376 | 116.18201 | 34952 ft | 460 kts | 178° |
| 2026-04-29 15:56 | -13.16757 | 116.18718 | 34953 ft | 460 kts | 178° |
| 2026-04-29 15:57 | -13.23098 | 116.19232 | 34953 ft | 460 kts | 178° |
| 2026-04-29 15:57 | -13.29477 | 116.19749 | 34953 ft | 460 kts | 178° |
| 2026-04-29 15:58 | -13.35851 | 116.20267 | 34953 ft | 459 kts | 178° |
| 2026-04-29 15:58 | -13.42221 | 116.20784 | 34953 ft | 459 kts | 178° |
| 2026-04-29 15:59 | -13.48582 | 116.21301 | 34963 ft | 459 kts | 178° |
| 2026-04-29 15:59 | -13.54944 | 116.21818 | 34955 ft | 458 kts | 178° |
| 2026-04-29 16:00 | -13.61302 | 116.22335 | 34959 ft | 458 kts | 178° |
| 2026-04-29 16:00 | -13.67651 | 116.22851 | 34958 ft | 458 kts | 178° |
| 2026-04-29 16:01 | -13.73999 | 116.23368 | 34962 ft | 457 kts | 178° |
| 2026-04-29 16:01 | -13.80343 | 116.23885 | 34967 ft | 457 kts | 178° |
| 2026-04-29 16:02 | -13.86685 | 116.24402 | 34962 ft | 457 kts | 178° |
| 2026-04-29 16:02 | -13.93022 | 116.24918 | 34961 ft | 457 kts | 178° |
| 2026-04-29 16:03 | -13.99361 | 116.25436 | 34964 ft | 457 kts | 178° |
| 2026-04-29 16:03 | -14.05656 | 116.25949 | 34961 ft | 457 kts | 178° |
| 2026-04-29 16:04 | -14.11992 | 116.26467 | 34973 ft | 457 kts | 178° |
| 2026-04-29 16:04 | -14.18336 | 116.26985 | 34969 ft | 458 kts | 178° |
| 2026-04-29 16:05 | -14.24687 | 116.27504 | 34971 ft | 458 kts | 178° |
| 2026-04-29 16:05 | -14.31044 | 116.28025 | 34971 ft | 458 kts | 178° |
| 2026-04-29 16:06 | -14.37405 | 116.28545 | 34973 ft | 459 kts | 178° |
| 2026-04-29 16:06 | -14.43776 | 116.29067 | 34977 ft | 459 kts | 179° |
| 2026-04-29 16:07 | -14.50154 | 116.29590 | 34974 ft | 460 kts | 179° |
| 2026-04-29 16:07 | -14.56537 | 116.30114 | 34972 ft | 460 kts | 179° |
| 2026-04-29 16:08 | -14.62921 | 116.30638 | 34975 ft | 460 kts | 179° |
| 2026-04-29 16:08 | -14.69310 | 116.31162 | 34976 ft | 461 kts | 179° |
| 2026-04-29 16:09 | -14.75703 | 116.31688 | 34980 ft | 461 kts | 179° |
| 2026-04-29 16:09 | -14.82095 | 116.32214 | 34977 ft | 461 kts | 179° |
| 2026-04-29 16:10 | -14.88445 | 116.32743 | 34981 ft | 461 kts | 179° |
| 2026-04-29 16:10 | -14.94827 | 116.33276 | 34981 ft | 460 kts | 179° |
| 2026-04-29 16:11 | -15.01212 | 116.33809 | 34981 ft | 460 kts | 179° |
| 2026-04-29 16:11 | -15.07595 | 116.34342 | 34984 ft | 460 kts | 179° |
| 2026-04-29 16:12 | -15.13974 | 116.34875 | 34981 ft | 460 kts | 179° |
| 2026-04-29 16:12 | -15.20358 | 116.35408 | 34980 ft | 460 kts | 179° |
| 2026-04-29 16:13 | -15.26743 | 116.35943 | 34984 ft | 460 kts | 179° |
| 2026-04-29 16:13 | -15.33125 | 116.36477 | 34984 ft | 460 kts | 179° |
| 2026-04-29 16:14 | -15.39513 | 116.37006 | 34989 ft | 461 kts | 179° |
| 2026-04-29 16:14 | -15.45907 | 116.37532 | 34983 ft | 461 kts | 179° |
| 2026-04-29 16:15 | -15.52305 | 116.38059 | 34984 ft | 461 kts | 179° |
| 2026-04-29 16:15 | -15.58703 | 116.38587 | 34984 ft | 461 kts | 179° |
| 2026-04-29 16:16 | -15.65101 | 116.39116 | 34986 ft | 461 kts | 179° |
| 2026-04-29 16:16 | -15.71505 | 116.39645 | 34992 ft | 462 kts | 180° |
| 2026-04-29 16:17 | -15.77911 | 116.40175 | 34989 ft | 462 kts | 180° |
| 2026-04-29 16:17 | -15.84269 | 116.40702 | 34991 ft | 462 kts | 180° |
| 2026-04-29 16:18 | -15.90673 | 116.41233 | 34988 ft | 461 kts | 180° |
| 2026-04-29 16:18 | -15.97072 | 116.41763 | 34986 ft | 461 kts | 180° |
| 2026-04-29 16:19 | -16.03462 | 116.42294 | 34998 ft | 461 kts | 181° |
| 2026-04-29 16:19 | -16.09852 | 116.42824 | 34988 ft | 460 kts | 181° |
| 2026-04-29 16:20 | -16.16233 | 116.43354 | 34990 ft | 460 kts | 181° |
| 2026-04-29 16:20 | -16.22605 | 116.43884 | 34991 ft | 459 kts | 181° |
| 2026-04-29 16:21 | -16.28968 | 116.44413 | 34991 ft | 458 kts | 181° |
| 2026-04-29 16:21 | -16.35324 | 116.44942 | 34991 ft | 458 kts | 181° |
| 2026-04-29 16:22 | -16.41674 | 116.45471 | 34996 ft | 457 kts | 181° |
| 2026-04-29 16:22 | -16.46947 | 116.45910 | 34994 ft | 457 kts | 181° |
| 2026-04-29 16:23 | -16.53291 | 116.46439 | 34996 ft | 457 kts | 181° |
| 2026-04-29 16:23 | -16.59631 | 116.46968 | 34994 ft | 457 kts | 181° |
| 2026-04-29 16:24 | -16.65974 | 116.47498 | 35004 ft | 457 kts | 181° |
| 2026-04-29 16:24 | -16.72318 | 116.48028 | 34998 ft | 457 kts | 181° |
| 2026-04-29 16:25 | -16.78658 | 116.48558 | 34999 ft | 457 kts | 181° |
| 2026-04-29 16:25 | -16.85000 | 116.49088 | 34998 ft | 457 kts | 181° |
| 2026-04-29 16:26 | -16.91339 | 116.49619 | 34999 ft | 457 kts | 181° |
| 2026-04-29 16:26 | -16.97676 | 116.50150 | 35001 ft | 457 kts | 181° |
| 2026-04-29 16:27 | -17.04006 | 116.50681 | 34993 ft | 456 kts | 181° |
| 2026-04-29 16:27 | -17.10335 | 116.51212 | 34993 ft | 456 kts | 181° |
| 2026-04-29 16:28 | -17.16656 | 116.51742 | 35008 ft | 455 kts | 181° |
| 2026-04-29 16:28 | -17.22972 | 116.52273 | 35005 ft | 455 kts | 181° |
| 2026-04-29 16:29 | -17.29278 | 116.52803 | 35005 ft | 455 kts | 180° |
| 2026-04-29 16:29 | -17.35585 | 116.53333 | 35005 ft | 454 kts | 180° |
| 2026-04-29 16:30 | -17.41885 | 116.53864 | 35005 ft | 454 kts | 180° |
| 2026-04-29 16:30 | -17.48179 | 116.54394 | 35006 ft | 454 kts | 180° |
| 2026-04-29 16:31 | -17.54466 | 116.54924 | 35019 ft | 453 kts | 180° |
| 2026-04-29 16:31 | -17.60495 | 116.55432 | 35013 ft | 453 kts | 180° |
| 2026-04-29 16:32 | -17.66779 | 116.55963 | 35006 ft | 453 kts | 180° |
| 2026-04-29 16:32 | -17.73056 | 116.56493 | 35009 ft | 452 kts | 180° |
| 2026-04-29 16:33 | -17.82458 | 116.57288 | 35011 ft | 452 kts | 180° |
| 2026-04-29 16:33 | -17.88726 | 116.57818 | 35019 ft | 452 kts | 180° |
| 2026-04-29 16:34 | -17.94954 | 116.58346 | 35011 ft | 452 kts | 180° |
| 2026-04-29 16:34 | -18.01218 | 116.58877 | 35010 ft | 452 kts | 180° |
| 2026-04-29 16:35 | -18.07482 | 116.59408 | 35011 ft | 451 kts | 180° |
| 2026-04-29 16:35 | -18.13743 | 116.59939 | 35012 ft | 451 kts | 180° |
| 2026-04-29 16:36 | -18.20000 | 116.60472 | 35020 ft | 451 kts | 180° |
| 2026-04-29 16:36 | -18.26248 | 116.61005 | 35014 ft | 450 kts | 180° |
| 2026-04-29 16:37 | -18.32490 | 116.61538 | 35015 ft | 450 kts | 180° |
| 2026-04-29 16:37 | -18.37712 | 116.61984 | 35015 ft | 449 kts | 180° |
| 2026-04-29 16:38 | -18.44947 | 116.62602 | 35015 ft | 448 kts | 180° |
| 2026-04-29 16:38 | -18.51157 | 116.63133 | 35017 ft | 448 kts | 179° |
| 2026-04-29 16:39 | -18.57363 | 116.63665 | 35015 ft | 447 kts | 179° |
| 2026-04-29 16:39 | -18.63559 | 116.64195 | 35015 ft | 446 kts | 179° |
| 2026-04-29 16:40 | -18.69746 | 116.64726 | 35017 ft | 446 kts | 179° |
| 2026-04-29 16:40 | -18.75922 | 116.65255 | 35023 ft | 445 kts | 179° |
| 2026-04-29 16:41 | -18.82099 | 116.65785 | 35019 ft | 445 kts | 179° |
| 2026-04-29 16:41 | -18.88266 | 116.66315 | 35018 ft | 445 kts | 179° |
| 2026-04-29 16:42 | -18.94436 | 116.66845 | 35016 ft | 444 kts | 179° |
| 2026-04-29 16:42 | -19.00556 | 116.67372 | 35016 ft | 444 kts | 179° |
| 2026-04-29 16:43 | -19.06717 | 116.67902 | 35031 ft | 444 kts | 179° |
| 2026-04-29 16:43 | -19.12879 | 116.68433 | 35022 ft | 444 kts | 179° |
| 2026-04-29 16:44 | -19.19042 | 116.68964 | 35017 ft | 444 kts | 179° |
| 2026-04-29 16:44 | -19.25199 | 116.69496 | 35016 ft | 444 kts | 179° |
| 2026-04-29 16:45 | -19.31356 | 116.70027 | 35021 ft | 444 kts | 179° |
| 2026-04-29 16:45 | -19.37509 | 116.70559 | 35016 ft | 443 kts | 179° |
| 2026-04-29 16:46 | -19.43660 | 116.71091 | 35021 ft | 443 kts | 179° |
| 2026-04-29 16:46 | -19.49807 | 116.71623 | 35019 ft | 443 kts | 179° |
| 2026-04-29 16:47 | -19.55954 | 116.72155 | 35025 ft | 443 kts | 179° |
| 2026-04-29 16:47 | -19.62099 | 116.72688 | 35021 ft | 443 kts | 179° |
| 2026-04-29 16:48 | -19.68245 | 116.73221 | 35032 ft | 443 kts | 179° |
| 2026-04-29 16:48 | -19.74389 | 116.73754 | 35016 ft | 443 kts | 179° |
| 2026-04-29 16:49 | -19.80530 | 116.74288 | 35015 ft | 442 kts | 179° |
| 2026-04-29 16:49 | -19.86660 | 116.74821 | 35015 ft | 442 kts | 179° |
| 2026-04-29 16:50 | -19.92784 | 116.75354 | 35020 ft | 441 kts | 179° |
| 2026-04-29 16:50 | -19.98898 | 116.75886 | 35032 ft | 441 kts | 179° |
| 2026-04-29 16:51 | -20.04966 | 116.76415 | 35021 ft | 440 kts | 179° |
| 2026-04-29 16:51 | -20.11061 | 116.76947 | 35017 ft | 439 kts | 179° |
| 2026-04-29 16:52 | -20.17147 | 116.77478 | 35021 ft | 438 kts | 179° |
| 2026-04-29 16:52 | -20.23223 | 116.78009 | 35021 ft | 438 kts | 179° |
| 2026-04-29 16:53 | -20.29288 | 116.78539 | 35041 ft | 437 kts | 179° |
| 2026-04-29 16:53 | -20.35344 | 116.79069 | 35024 ft | 436 kts | 179° |
| 2026-04-29 16:54 | -20.41389 | 116.79598 | 35027 ft | 435 kts | 179° |
| 2026-04-29 16:54 | -20.47421 | 116.80127 | 35031 ft | 434 kts | 179° |
| 2026-04-29 16:55 | -20.53442 | 116.80655 | 35022 ft | 434 kts | 179° |
| 2026-04-29 16:55 | -20.59460 | 116.81183 | 35033 ft | 434 kts | 179° |
| 2026-04-29 16:56 | -20.65472 | 116.81711 | 35027 ft | 433 kts | 179° |
| 2026-04-29 16:56 | -20.71473 | 116.82239 | 35029 ft | 432 kts | 179° |
| 2026-04-29 16:57 | -20.77462 | 116.82765 | 35030 ft | 432 kts | 179° |
| 2026-04-29 16:57 | -20.83449 | 116.83292 | 35029 ft | 431 kts | 179° |
| 2026-04-29 16:58 | -20.89427 | 116.83819 | 35034 ft | 431 kts | 179° |
| 2026-04-29 16:58 | -20.95405 | 116.84346 | 35030 ft | 431 kts | 179° |
| 2026-04-29 16:59 | -21.01132 | 116.84852 | 35031 ft | 430 kts | 179° |
| 2026-04-29 16:59 | -21.07062 | 116.85376 | 35033 ft | 430 kts | 179° |
| 2026-04-29 17:00 | -21.13063 | 116.85906 | 35037 ft | 430 kts | 179° |
| 2026-04-29 17:00 | -21.19018 | 116.86433 | 35042 ft | 429 kts | 179° |
| 2026-04-29 17:01 | -21.24960 | 116.86640 | 35043 ft | 425 kts | 185° |
| 2026-04-29 17:01 | -21.30869 | 116.86459 | 35039 ft | 425 kts | 186° |
| 2026-04-29 17:02 | -21.36731 | 116.86262 | 35036 ft | 424 kts | 185° |
| 2026-04-29 17:02 | -21.42634 | 116.86097 | 35034 ft | 424 kts | 185° |
| 2026-04-29 17:03 | -21.48537 | 116.85953 | 35047 ft | 424 kts | 185° |
| 2026-04-29 17:03 | -21.54436 | 116.85816 | 35038 ft | 424 kts | 185° |
| 2026-04-29 17:04 | -21.60336 | 116.85678 | 35045 ft | 424 kts | 185° |
| 2026-04-29 17:04 | -21.66225 | 116.85541 | 35040 ft | 423 kts | 185° |
| 2026-04-29 17:05 | -21.72111 | 116.85403 | 35044 ft | 423 kts | 185° |
| 2026-04-29 17:05 | -21.77990 | 116.85265 | 35045 ft | 423 kts | 186° |
| 2026-04-29 17:06 | -21.83871 | 116.85127 | 35047 ft | 423 kts | 186° |
| 2026-04-29 17:06 | -21.89751 | 116.84989 | 35052 ft | 423 kts | 186° |
| 2026-04-29 17:07 | -21.94677 | 116.84873 | 35047 ft | 423 kts | 186° |
| 2026-04-29 17:07 | -22.01511 | 116.84712 | 35045 ft | 423 kts | 186° |
| 2026-04-29 17:08 | -22.07393 | 116.84573 | 35061 ft | 423 kts | 186° |
| 2026-04-29 17:08 | -22.12285 | 116.84458 | 35052 ft | 423 kts | 186° |
| 2026-04-29 17:09 | -22.18175 | 116.84318 | 35053 ft | 423 kts | 186° |
| 2026-04-29 17:09 | -22.24068 | 116.84179 | 35054 ft | 423 kts | 186° |
| 2026-04-29 17:10 | -22.29958 | 116.84040 | 35055 ft | 423 kts | 186° |
| 2026-04-29 17:10 | -22.35852 | 116.83901 | 35062 ft | 424 kts | 186° |
| 2026-04-29 17:11 | -22.41755 | 116.83761 | 35057 ft | 424 kts | 186° |
| 2026-04-29 17:11 | -22.47646 | 116.83621 | 35055 ft | 424 kts | 186° |
| 2026-04-29 17:12 | -22.53545 | 116.83482 | 35059 ft | 424 kts | 186° |
| 2026-04-29 17:12 | -22.58444 | 116.83365 | 35057 ft | 424 kts | 186° |
| 2026-04-29 17:13 | -22.65333 | 116.83202 | 35060 ft | 424 kts | 186° |
| 2026-04-29 17:13 | -22.71232 | 116.83061 | 35049 ft | 424 kts | 186° |
| 2026-04-29 17:14 | -22.77126 | 116.82921 | 35051 ft | 423 kts | 187° |
| 2026-04-29 17:14 | -22.83009 | 116.82781 | 35059 ft | 423 kts | 186° |
| 2026-04-29 17:15 | -22.88856 | 116.82641 | 35051 ft | 423 kts | 186° |
| 2026-04-29 17:15 | -22.94744 | 116.82501 | 35054 ft | 423 kts | 187° |
| 2026-04-29 17:16 | -23.00628 | 116.82360 | 35046 ft | 423 kts | 187° |
| 2026-04-29 17:16 | -23.06514 | 116.82219 | 35048 ft | 423 kts | 187° |
| 2026-04-29 17:17 | -23.12399 | 116.82078 | 35046 ft | 423 kts | 187° |
| 2026-04-29 17:17 | -23.18282 | 116.81938 | 35045 ft | 423 kts | 187° |
| 2026-04-29 17:18 | -23.24164 | 116.81797 | 35050 ft | 423 kts | 187° |
| 2026-04-29 17:18 | -23.30052 | 116.81655 | 35044 ft | 423 kts | 187° |
| 2026-04-29 17:19 | -23.35937 | 116.81514 | 35040 ft | 423 kts | 187° |
| 2026-04-29 17:19 | -23.41814 | 116.81373 | 35043 ft | 423 kts | 187° |
| 2026-04-29 17:20 | -23.47699 | 116.81231 | 35045 ft | 423 kts | 187° |
| 2026-04-29 17:20 | -23.53581 | 116.81089 | 35055 ft | 423 kts | 187° |
| 2026-04-29 17:21 | -23.59474 | 116.80947 | 35052 ft | 424 kts | 187° |
| 2026-04-29 17:21 | -23.65375 | 116.80805 | 35045 ft | 424 kts | 187° |
| 2026-04-29 17:22 | -23.71267 | 116.80663 | 35047 ft | 424 kts | 187° |
| 2026-04-29 17:22 | -23.77167 | 116.80520 | 35070 ft | 424 kts | 187° |
| 2026-04-29 17:23 | -23.83076 | 116.80377 | 35051 ft | 425 kts | 187° |
| 2026-04-29 17:23 | -23.88997 | 116.80255 | 35045 ft | 426 kts | 187° |
| 2026-04-29 17:24 | -23.94913 | 116.80110 | 35043 ft | 425 kts | 187° |
| 2026-04-29 17:24 | -24.00831 | 116.79956 | 35051 ft | 425 kts | 187° |
| 2026-04-29 17:25 | -24.06752 | 116.79807 | 35055 ft | 426 kts | 187° |
| 2026-04-29 17:25 | -24.12636 | 116.79664 | 35044 ft | 426 kts | 187° |
| 2026-04-29 17:26 | -24.18557 | 116.79525 | 35043 ft | 426 kts | 187° |
| 2026-04-29 17:26 | -24.24479 | 116.79384 | 35041 ft | 426 kts | 187° |
| 2026-04-29 17:27 | -24.30397 | 116.79241 | 35045 ft | 425 kts | 187° |
| 2026-04-29 17:27 | -24.36319 | 116.79097 | 35051 ft | 426 kts | 188° |
| 2026-04-29 17:28 | -24.42248 | 116.78953 | 35047 ft | 426 kts | 188° |
| 2026-04-29 17:28 | -24.48180 | 116.78809 | 35041 ft | 426 kts | 188° |
| 2026-04-29 17:29 | -24.54108 | 116.78665 | 35040 ft | 426 kts | 188° |
| 2026-04-29 17:29 | -24.59039 | 116.78545 | 35042 ft | 426 kts | 188° |
| 2026-04-29 17:30 | -24.65975 | 116.78377 | 35051 ft | 427 kts | 188° |
| 2026-04-29 17:30 | -24.71911 | 116.78232 | 35039 ft | 427 kts | 188° |
| 2026-04-29 17:31 | -24.77856 | 116.78088 | 35037 ft | 427 kts | 188° |
| 2026-04-29 17:31 | -24.83801 | 116.77944 | 35037 ft | 427 kts | 188° |
| 2026-04-29 17:32 | -24.89743 | 116.77799 | 35038 ft | 427 kts | 188° |
| 2026-04-29 17:32 | -24.95687 | 116.77654 | 35037 ft | 427 kts | 188° |
| 2026-04-29 17:33 | -25.01629 | 116.77509 | 35035 ft | 427 kts | 188° |
| 2026-04-29 17:33 | -25.07572 | 116.77365 | 35036 ft | 427 kts | 188° |
| 2026-04-29 17:34 | -25.13477 | 116.77221 | 35032 ft | 427 kts | 188° |
| 2026-04-29 17:34 | -25.19421 | 116.77075 | 35032 ft | 427 kts | 188° |
| 2026-04-29 17:35 | -25.28377 | 116.76856 | 35033 ft | 427 kts | 188° |
| 2026-04-29 17:36 | -25.34320 | 116.76710 | 35033 ft | 427 kts | 188° |
| 2026-04-29 17:36 | -25.40266 | 116.76564 | 35032 ft | 427 kts | 188° |
| 2026-04-29 17:37 | -25.46214 | 116.76418 | 35058 ft | 428 kts | 188° |
| 2026-04-29 17:37 | -25.52172 | 116.76271 | 35040 ft | 428 kts | 188° |
| 2026-04-29 17:38 | -25.58095 | 116.76125 | 35030 ft | 429 kts | 188° |
| 2026-04-29 17:38 | -25.64066 | 116.75978 | 35030 ft | 429 kts | 188° |
| 2026-04-29 17:39 | -25.70036 | 116.75831 | 35029 ft | 429 kts | 188° |
| 2026-04-29 17:39 | -25.76014 | 116.75684 | 35045 ft | 430 kts | 188° |
| 2026-04-29 17:40 | -25.81992 | 116.75536 | 35033 ft | 430 kts | 188° |
| 2026-04-29 17:40 | -25.87979 | 116.75388 | 35026 ft | 430 kts | 188° |
| 2026-04-29 17:41 | -25.93967 | 116.75240 | 35030 ft | 431 kts | 188° |
| 2026-04-29 17:41 | -25.99958 | 116.75091 | 35031 ft | 431 kts | 188° |
| 2026-04-29 17:42 | -26.05954 | 116.74943 | 35032 ft | 431 kts | 188° |
| 2026-04-29 17:42 | -26.11958 | 116.74793 | 35031 ft | 432 kts | 188° |
| 2026-04-29 17:43 | -26.17965 | 116.74644 | 35024 ft | 432 kts | 188° |
| 2026-04-29 17:43 | -26.23973 | 116.74495 | 35024 ft | 432 kts | 188° |
| 2026-04-29 17:44 | -26.29988 | 116.74345 | 35042 ft | 432 kts | 188° |
| 2026-04-29 17:44 | -26.36001 | 116.74195 | 35033 ft | 432 kts | 188° |
| 2026-04-29 17:45 | -26.42016 | 116.74045 | 35030 ft | 433 kts | 188° |
| 2026-04-29 17:45 | -26.48036 | 116.73895 | 35026 ft | 433 kts | 188° |
| 2026-04-29 17:46 | -26.54057 | 116.73744 | 35027 ft | 433 kts | 188° |
| 2026-04-29 17:46 | -26.60077 | 116.73593 | 35034 ft | 433 kts | 189° |
| 2026-04-29 17:47 | -26.66100 | 116.73441 | 35032 ft | 433 kts | 189° |
| 2026-04-29 17:47 | -26.72128 | 116.73284 | 35029 ft | 433 kts | 189° |
| 2026-04-29 17:48 | -26.78156 | 116.73126 | 35031 ft | 433 kts | 189° |
| 2026-04-29 17:48 | -26.84186 | 116.72968 | 35030 ft | 433 kts | 189° |
| 2026-04-29 17:49 | -26.90224 | 116.72810 | 35041 ft | 434 kts | 189° |
| 2026-04-29 17:49 | -26.96229 | 116.72652 | 35040 ft | 435 kts | 189° |
| 2026-04-29 17:50 | -27.02288 | 116.72493 | 35038 ft | 436 kts | 189° |
| 2026-04-29 17:50 | -27.08360 | 116.72334 | 35035 ft | 437 kts | 189° |
| 2026-04-29 17:51 | -27.14439 | 116.72174 | 35050 ft | 438 kts | 189° |
| 2026-04-29 17:51 | -27.20534 | 116.72014 | 35041 ft | 438 kts | 189° |
| 2026-04-29 17:52 | -27.26637 | 116.71853 | 35031 ft | 439 kts | 189° |
| 2026-04-29 17:52 | -27.32739 | 116.71693 | 35042 ft | 438 kts | 189° |
| 2026-04-29 17:53 | -27.38837 | 116.71532 | 35071 ft | 438 kts | 189° |
| 2026-04-29 17:53 | -27.44941 | 116.71371 | 35049 ft | 439 kts | 189° |
| 2026-04-29 17:54 | -27.51044 | 116.71210 | 35046 ft | 439 kts | 189° |
| 2026-04-29 17:54 | -27.57144 | 116.71048 | 35039 ft | 439 kts | 189° |
| 2026-04-29 17:55 | -27.63243 | 116.70887 | 35043 ft | 438 kts | 189° |
| 2026-04-29 17:55 | -27.68308 | 116.70752 | 35059 ft | 438 kts | 189° |
| 2026-04-29 17:56 | -27.74405 | 116.70590 | 35049 ft | 438 kts | 189° |
| 2026-04-29 17:56 | -27.80502 | 116.70428 | 35046 ft | 438 kts | 189° |
| 2026-04-29 17:57 | -27.86599 | 116.70266 | 35045 ft | 438 kts | 189° |
| 2026-04-29 17:57 | -27.92697 | 116.70114 | 35049 ft | 439 kts | 189° |
| 2026-04-29 17:58 | -27.98801 | 116.69964 | 35053 ft | 439 kts | 189° |
| 2026-04-29 17:58 | -28.04910 | 116.69812 | 35052 ft | 439 kts | 189° |
| 2026-04-29 17:59 | -28.11024 | 116.69659 | 35050 ft | 440 kts | 189° |
| 2026-04-29 17:59 | -28.17139 | 116.69507 | 35053 ft | 440 kts | 189° |
| 2026-04-29 18:00 | -28.23267 | 116.69353 | 35061 ft | 441 kts | 189° |
| 2026-04-29 18:00 | -28.29400 | 116.69200 | 35061 ft | 441 kts | 189° |
| 2026-04-29 18:01 | -28.35546 | 116.69046 | 35059 ft | 442 kts | 189° |
| 2026-04-29 18:01 | -28.41692 | 116.68888 | 35065 ft | 441 kts | 189° |
| 2026-04-29 18:02 | -28.47813 | 116.68731 | 35082 ft | 439 kts | 189° |
| 2026-04-29 18:02 | -28.53917 | 116.68573 | 35061 ft | 438 kts | 189° |
| 2026-04-29 18:03 | -28.59999 | 116.68416 | 35060 ft | 436 kts | 189° |
| 2026-04-29 18:03 | -28.66059 | 116.68260 | 35069 ft | 435 kts | 189° |
| 2026-04-29 18:04 | -28.72104 | 116.68103 | 35071 ft | 434 kts | 189° |
| 2026-04-29 18:04 | -28.78134 | 116.67946 | 35082 ft | 433 kts | 188° |
| 2026-04-29 18:05 | -28.84162 | 116.67790 | 35079 ft | 433 kts | 188° |
| 2026-04-29 18:05 | -28.90139 | 116.67634 | 35083 ft | 432 kts | 188° |
| 2026-04-29 18:06 | -28.96191 | 116.67477 | 35084 ft | 432 kts | 188° |
| 2026-04-29 18:06 | -29.02165 | 116.67321 | 35091 ft | 433 kts | 189° |
| 2026-04-29 18:07 | -29.08203 | 116.67163 | 35093 ft | 435 kts | 189° |
| 2026-04-29 18:07 | -29.14264 | 116.67005 | 35093 ft | 437 kts | 189° |
| 2026-04-29 18:08 | -29.20357 | 116.66845 | 35088 ft | 439 kts | 189° |
| 2026-04-29 18:08 | -29.26476 | 116.66681 | 35114 ft | 440 kts | 189° |
| 2026-04-29 18:09 | -29.32618 | 116.66517 | 35099 ft | 442 kts | 189° |
| 2026-04-29 18:09 | -29.38766 | 116.66353 | 35098 ft | 442 kts | 189° |
| 2026-04-29 18:10 | -29.44918 | 116.66189 | 35098 ft | 442 kts | 189° |
| 2026-04-29 18:10 | -29.51062 | 116.66025 | 35125 ft | 441 kts | 189° |
| 2026-04-29 18:11 | -29.57194 | 116.65861 | 35108 ft | 441 kts | 189° |
| 2026-04-29 18:11 | -29.63321 | 116.65696 | 35100 ft | 440 kts | 189° |
| 2026-04-29 18:11 | -29.66370 | 116.65616 | 34900 ft | 437 kts | 189° |
| 2026-04-29 18:12 | -29.69347 | 116.65539 | 34610 ft | 430 kts | 189° |
| 2026-04-29 18:12 | -29.72323 | 116.65462 | 34217 ft | 426 kts | 189° |
| 2026-04-29 18:12 | -29.75280 | 116.65383 | 33806 ft | 423 kts | 189° |
| 2026-04-29 18:12 | -29.78211 | 116.65304 | 33414 ft | 420 kts | 189° |
| 2026-04-29 18:13 | -29.81158 | 116.65224 | 32996 ft | 417 kts | 189° |
| 2026-04-29 18:13 | -29.84010 | 116.65147 | 32600 ft | 413 kts | 189° |
| 2026-04-29 18:13 | -29.86873 | 116.65069 | 32206 ft | 410 kts | 189° |
| 2026-04-29 18:13 | -29.89715 | 116.64992 | 31826 ft | 407 kts | 189° |
| 2026-04-29 18:14 | -29.92538 | 116.64916 | 31445 ft | 404 kts | 189° |
| 2026-04-29 18:14 | -29.95339 | 116.64839 | 31072 ft | 402 kts | 189° |
| 2026-04-29 18:14 | -29.98126 | 116.64764 | 30709 ft | 399 kts | 189° |
| 2026-04-29 18:14 | -30.00892 | 116.64688 | 30340 ft | 397 kts | 189° |
| 2026-04-29 18:15 | -30.03643 | 116.64613 | 29958 ft | 395 kts | 189° |
| 2026-04-29 18:15 | -30.06381 | 116.64538 | 29528 ft | 392 kts | 189° |
| 2026-04-29 18:15 | -30.09098 | 116.64465 | 29117 ft | 389 kts | 188° |
| 2026-04-29 18:15 | -30.11794 | 116.64392 | 28722 ft | 386 kts | 188° |
| 2026-04-29 18:16 | -30.14468 | 116.64319 | 28345 ft | 383 kts | 188° |
| 2026-04-29 18:16 | -30.17121 | 116.64247 | 27965 ft | 380 kts | 188° |
| 2026-04-29 18:16 | -30.19750 | 116.64176 | 27591 ft | 377 kts | 188° |
| 2026-04-29 18:16 | -30.22366 | 116.64104 | 27229 ft | 374 kts | 188° |
| 2026-04-29 18:17 | -30.24965 | 116.64033 | 26859 ft | 372 kts | 188° |
| 2026-04-29 18:17 | -30.27544 | 116.63962 | 26491 ft | 370 kts | 188° |
| 2026-04-29 18:17 | -30.30109 | 116.63892 | 26148 ft | 368 kts | 188° |
| 2026-04-29 18:17 | -30.32662 | 116.63822 | 25777 ft | 366 kts | 188° |
| 2026-04-29 18:18 | -30.35207 | 116.63752 | 25415 ft | 365 kts | 188° |
| 2026-04-29 18:18 | -30.37739 | 116.63682 | 25056 ft | 363 kts | 188° |
| 2026-04-29 18:18 | -30.40262 | 116.63613 | 24687 ft | 363 kts | 188° |
| 2026-04-29 18:18 | -30.42782 | 116.63544 | 24328 ft | 362 kts | 188° |
| 2026-04-29 18:19 | -30.45298 | 116.63474 | 23967 ft | 361 kts | 187° |
| 2026-04-29 18:19 | -30.47801 | 116.63406 | 23576 ft | 361 kts | 187° |
| 2026-04-29 18:19 | -30.50307 | 116.63337 | 23175 ft | 359 kts | 187° |
| 2026-04-29 18:19 | -30.52796 | 116.63270 | 22790 ft | 357 kts | 187° |
| 2026-04-29 18:20 | -30.55257 | 116.63081 | 22414 ft | 351 kts | 194° |
| 2026-04-29 18:20 | -30.57590 | 116.62406 | 22054 ft | 343 kts | 203° |
| 2026-04-29 18:20 | -30.59842 | 116.61525 | 21705 ft | 340 kts | 204° |
| 2026-04-29 18:20 | -30.62072 | 116.60631 | 21352 ft | 338 kts | 204° |
| 2026-04-29 18:21 | -30.64292 | 116.59744 | 21002 ft | 337 kts | 204° |
| 2026-04-29 18:21 | -30.66508 | 116.58868 | 20657 ft | 336 kts | 203° |
| 2026-04-29 18:21 | -30.68716 | 116.58002 | 20317 ft | 334 kts | 203° |
| 2026-04-29 18:21 | -30.70917 | 116.57143 | 19964 ft | 333 kts | 203° |
| 2026-04-29 18:22 | -30.73114 | 116.56287 | 19631 ft | 332 kts | 202° |
| 2026-04-29 18:22 | -30.75308 | 116.55433 | 19263 ft | 333 kts | 202° |
| 2026-04-29 18:22 | -30.77500 | 116.54580 | 18922 ft | 332 kts | 202° |
| 2026-04-29 18:22 | -30.79695 | 116.53726 | 18571 ft | 332 kts | 202° |
| 2026-04-29 18:23 | -30.81889 | 116.52870 | 18170 ft | 333 kts | 202° |
| 2026-04-29 18:23 | -30.84078 | 116.52017 | 17809 ft | 331 kts | 202° |
| 2026-04-29 18:23 | -30.86262 | 116.51166 | 17453 ft | 330 kts | 202° |
| 2026-04-29 18:23 | -30.88432 | 116.50318 | 17111 ft | 328 kts | 202° |
| 2026-04-29 18:24 | -30.90596 | 116.49473 | 16761 ft | 327 kts | 202° |
| 2026-04-29 18:24 | -30.92746 | 116.48633 | 16434 ft | 325 kts | 202° |
| 2026-04-29 18:24 | -30.94887 | 116.47795 | 16099 ft | 324 kts | 202° |
| 2026-04-29 18:24 | -30.97019 | 116.46961 | 15767 ft | 323 kts | 202° |
| 2026-04-29 18:25 | -30.99148 | 116.46128 | 15431 ft | 322 kts | 201° |
| 2026-04-29 18:25 | -31.01268 | 116.45298 | 15098 ft | 321 kts | 201° |
| 2026-04-29 18:25 | -31.03382 | 116.44470 | 14761 ft | 320 kts | 201° |
| 2026-04-29 18:25 | -31.05509 | 116.43634 | 14276 ft | 325 kts | 201° |
| 2026-04-29 18:26 | -31.07630 | 116.42801 | 13891 ft | 326 kts | 201° |
| 2026-04-29 18:26 | -31.09805 | 116.41947 | 13523 ft | 325 kts | 201° |
| 2026-04-29 18:26 | -31.11937 | 116.41109 | 13211 ft | 321 kts | 201° |
| 2026-04-29 18:26 | -31.14041 | 116.40283 | 12934 ft | 317 kts | 201° |
| 2026-04-29 18:27 | -31.16117 | 116.39466 | 12698 ft | 312 kts | 201° |
| 2026-04-29 18:27 | -31.18161 | 116.38662 | 12466 ft | 308 kts | 201° |
| 2026-04-29 18:27 | -31.20176 | 116.37868 | 12221 ft | 304 kts | 201° |
| 2026-04-29 18:27 | -31.22167 | 116.37083 | 11959 ft | 301 kts | 201° |
| 2026-04-29 18:28 | -31.24141 | 116.36304 | 11667 ft | 299 kts | 202° |
| 2026-04-29 18:28 | -31.26084 | 116.35537 | 11356 ft | 299 kts | 202° |
| 2026-04-29 18:28 | -31.28060 | 116.34756 | 10953 ft | 301 kts | 202° |
| 2026-04-29 18:28 | -31.30084 | 116.33956 | 10529 ft | 305 kts | 202° |
| 2026-04-29 18:29 | -31.32053 | 116.33178 | 10311 ft | 300 kts | 202° |
| 2026-04-29 18:29 | -31.33380 | 116.32654 | 10196 ft | 296 kts | 202° |
| 2026-04-29 18:29 | -31.35935 | 116.31645 | 9913 ft | 291 kts | 202° |
| 2026-04-29 18:29 | -31.37847 | 116.30888 | 9625 ft | 289 kts | 202° |
| 2026-04-29 18:30 | -31.39751 | 116.30135 | 9333 ft | 288 kts | 202° |
| 2026-04-29 18:30 | -31.41639 | 116.29380 | 9050 ft | 286 kts | 204° |
| 2026-04-29 18:30 | -31.43426 | 116.28405 | 8769 ft | 282 kts | 211° |
| 2026-04-29 18:30 | -31.45132 | 116.27295 | 8498 ft | 280 kts | 213° |
| 2026-04-29 18:31 | -31.46819 | 116.26172 | 8225 ft | 278 kts | 212° |
| 2026-04-29 18:31 | -31.48494 | 116.25065 | 7965 ft | 276 kts | 212° |
| 2026-04-29 18:31 | -31.50163 | 116.23975 | 7701 ft | 274 kts | 212° |
| 2026-04-29 18:31 | -31.51827 | 116.22896 | 7440 ft | 272 kts | 212° |
| 2026-04-29 18:32 | -31.53483 | 116.21828 | 7176 ft | 271 kts | 211° |
| 2026-04-29 18:32 | -31.56781 | 116.19710 | 6660 ft | 269 kts | 211° |
| 2026-04-29 18:32 | -31.58423 | 116.18658 | 6384 ft | 269 kts | 211° |
| 2026-04-29 18:33 | -31.60061 | 116.17609 | 6108 ft | 268 kts | 211° |
| 2026-04-29 18:33 | -31.61693 | 116.16564 | 5843 ft | 266 kts | 211° |
| 2026-04-29 18:33 | -31.63315 | 116.15525 | 5581 ft | 265 kts | 211° |
| 2026-04-29 18:33 | -31.64923 | 116.14494 | 5215 ft | 260 kts | 211° |
| 2026-04-29 18:34 | -31.66494 | 116.13485 | 4966 ft | 256 kts | 210° |
| 2026-04-29 18:34 | -31.67022 | 116.13146 | 4884 ft | 256 kts | 210° |
| 2026-04-29 18:34 | -31.69604 | 116.11486 | 4464 ft | 254 kts | 210° |
| 2026-04-29 18:34 | -31.71150 | 116.10492 | 4201 ft | 253 kts | 210° |
| 2026-04-29 18:35 | -31.72690 | 116.09502 | 3955 ft | 251 kts | 210° |
| 2026-04-29 18:35 | -31.74217 | 116.08520 | 3719 ft | 250 kts | 210° |
| 2026-04-29 18:35 | -31.75647 | 116.07386 | 3460 ft | 247 kts | 228° |
| 2026-04-29 18:35 | -31.76666 | 116.05815 | 3242 ft | 238 kts | 235° |
| 2026-04-29 18:36 | -31.77636 | 116.04272 | 2998 ft | 231 kts | 234° |
| 2026-04-29 18:36 | -31.78588 | 116.02786 | 2773 ft | 224 kts | 233° |
| 2026-04-29 18:36 | -31.79507 | 116.01359 | 2613 ft | 213 kts | 233° |
| 2026-04-29 18:36 | -31.80544 | 116.00231 | 2478 ft | 198 kts | 200° |
| 2026-04-29 18:37 | -31.81874 | 116.00072 | 2526 ft | 191 kts | 182° |
| 2026-04-29 18:37 | -31.83147 | 115.99772 | 2222 ft | 187 kts | 200° |
| 2026-04-29 18:37 | -31.84341 | 115.99324 | 2043 ft | 173 kts | 194° |
| 2026-04-29 18:37 | -31.85511 | 115.98998 | 1621 ft | 173 kts | 194° |
| 2026-04-29 18:38 | -31.86656 | 115.98669 | 1429 ft | 171 kts | 194° |
| 2026-04-29 18:38 | -31.87780 | 115.98323 | 1165 ft | 163 kts | 193° |
| 2026-04-29 18:38 | -31.88858 | 115.98024 | 843 ft | 154 kts | 192° |
| 2026-04-29 18:38 | -31.89869 | 115.97728 | 628 ft | 148 kts | 193° |
| 2026-04-29 18:39 | -31.90867 | 115.97434 | 445 ft | 149 kts | 193° |
| 2026-04-29 18:39 | -31.91875 | 115.97142 | 281 ft | 149 kts | 193° |
| 2026-04-29 18:39 | -31.92880 | 115.96842 | 102 ft | 150 kts | 194° |
| 2026-04-29 18:39 | -31.93813 | 115.96572 | 67 ft | 114 kts | 194° |
| 2026-04-29 18:40 | -31.94357 | 115.96414 | 66 ft | 33 kts | 194° |
| 2026-04-29 18:40 | -31.94470 | 115.96494 | 62 ft | 18 kts | 108° |
| 2026-04-29 18:40 | -31.94500 | 115.96638 | 62 ft | 10 kts | 104° |
| 2026-04-29 18:40 | -31.94469 | 115.96725 | 64 ft | 15 kts | 27° |
| 2026-04-29 18:41 | -31.94188 | 115.96848 | 63 ft | 12 kts | 88° |
| 2026-04-29 18:41 | -31.94203 | 115.96931 | 67 ft | 7 kts | 104° |
| 2026-04-29 18:42 | -31.94211 | 115.96970 | 62 ft | 4 kts | 104° |
| 2026-04-29 18:42 | -31.94207 | 115.96994 | 67 ft | 5 kts | 51° |
| 2026-04-29 18:42 | -31.94169 | 115.97006 | 62 ft | 7 kts | 14° |
| 2026-04-29 18:42 | -31.94158 | 115.97010 | 64 ft | 3 kts | 14° |
| 2026-04-29 18:43 | -31.94156 | 115.97010 | 63 ft | 0 kts | 14° |